sensor_id;sensor_type;location;lat;lon;timestamp;P1;durP1;ratioP1;P2;durP2;ratioP2
20445;SDS011;10382;49.140;9.234;2024-01-11T00:01:49;46.60;;;20.35;;
20445;SDS011;10382;49.140;9.234;2024-01-11T00:04:17;43.78;;;21.20;;
20445;SDS011;10382;49.140;9.234;2024-01-11T00:06:45;42.08;;;19.73;;
20445;SDS011;10382;49.140;9.234;2024-01-11T00:09:12;47.65;;;21.23;;
20445;SDS011;10382;49.140;9.234;2024-01-11T00:11:38;46.85;;;21.23;;
20445;SDS011;10382;49.140;9.234;2024-01-11T00:14:05;44.85;;;21.23;;
20445;SDS011;10382;49.140;9.234;2024-01-11T00:16:32;42.35;;;20.80;;
20445;SDS011;10382;49.140;9.234;2024-01-11T00:18:59;38.90;;;20.52;;
20445;SDS011;10382;49.140;9.234;2024-01-11T00:21:28;40.35;;;18.27;;
20445;SDS011;10382;49.140;9.234;2024-01-11T00:23:55;43.50;;;20.02;;
20445;SDS011;10382;49.140;9.234;2024-01-11T00:26:21;45.30;;;18.98;;
20445;SDS011;10382;49.140;9.234;2024-01-11T00:28:48;47.17;;;21.40;;
20445;SDS011;10382;49.140;9.234;2024-01-11T00:31:15;49.92;;;20.08;;
20445;SDS011;10382;49.140;9.234;2024-01-11T00:33:42;36.17;;;20.25;;
20445;SDS011;10382;49.140;9.234;2024-01-11T00:36:09;39.97;;;19.58;;
20445;SDS011;10382;49.140;9.234;2024-01-11T00:38:37;48.40;;;21.67;;
20445;SDS011;10382;49.140;9.234;2024-01-11T00:41:04;41.25;;;20.20;;
20445;SDS011;10382;49.140;9.234;2024-01-11T00:43:31;48.70;;;21.13;;
20445;SDS011;10382;49.140;9.234;2024-01-11T00:45:58;41.20;;;20.48;;
20445;SDS011;10382;49.140;9.234;2024-01-11T00:48:25;39.47;;;21.08;;
20445;SDS011;10382;49.140;9.234;2024-01-11T00:50:52;49.72;;;22.98;;
20445;SDS011;10382;49.140;9.234;2024-01-11T00:53:19;53.40;;;19.42;;
20445;SDS011;10382;49.140;9.234;2024-01-11T00:55:47;41.20;;;19.17;;
20445;SDS011;10382;49.140;9.234;2024-01-11T00:58:14;36.92;;;19.13;;
20445;SDS011;10382;49.140;9.234;2024-01-11T01:00:41;46.22;;;18.83;;
20445;SDS011;10382;49.140;9.234;2024-01-11T01:03:08;43.15;;;19.25;;
20445;SDS011;10382;49.140;9.234;2024-01-11T01:05:35;39.50;;;18.42;;
20445;SDS011;10382;49.140;9.234;2024-01-11T01:08:02;37.47;;;21.30;;
20445;SDS011;10382;49.140;9.234;2024-01-11T01:10:29;49.85;;;19.27;;
20445;SDS011;10382;49.140;9.234;2024-01-11T01:12:57;41.80;;;19.02;;
20445;SDS011;10382;49.140;9.234;2024-01-11T01:15:24;43.15;;;20.02;;
20445;SDS011;10382;49.140;9.234;2024-01-11T01:17:51;42.38;;;20.45;;
20445;SDS011;10382;49.140;9.234;2024-01-11T01:20:18;55.25;;;22.10;;
20445;SDS011;10382;49.140;9.234;2024-01-11T01:22:45;43.13;;;19.73;;
20445;SDS011;10382;49.140;9.234;2024-01-11T01:25:12;43.40;;;19.83;;
20445;SDS011;10382;49.140;9.234;2024-01-11T01:27:39;34.78;;;19.50;;
20445;SDS011;10382;49.140;9.234;2024-01-11T01:30:08;46.60;;;19.13;;
20445;SDS011;10382;49.140;9.234;2024-01-11T01:32:35;41.40;;;20.10;;
20445;SDS011;10382;49.140;9.234;2024-01-11T01:35:02;63.22;;;18.48;;
20445;SDS011;10382;49.140;9.234;2024-01-11T01:37:29;33.67;;;17.35;;
20445;SDS011;10382;49.140;9.234;2024-01-11T01:39:56;50.83;;;19.35;;
20445;SDS011;10382;49.140;9.234;2024-01-11T01:42:23;49.60;;;19.98;;
20445;SDS011;10382;49.140;9.234;2024-01-11T01:44:50;41.00;;;18.85;;
20445;SDS011;10382;49.140;9.234;2024-01-11T01:47:18;41.08;;;20.85;;
20445;SDS011;10382;49.140;9.234;2024-01-11T01:49:45;40.08;;;21.23;;
20445;SDS011;10382;49.140;9.234;2024-01-11T01:52:15;38.13;;;18.25;;
20445;SDS011;10382;49.140;9.234;2024-01-11T01:54:42;38.60;;;19.00;;
20445;SDS011;10382;49.140;9.234;2024-01-11T01:57:09;38.95;;;18.40;;
20445;SDS011;10382;49.140;9.234;2024-01-11T01:59:37;41.92;;;18.40;;
20445;SDS011;10382;49.140;9.234;2024-01-11T02:02:05;36.50;;;17.88;;
20445;SDS011;10382;49.140;9.234;2024-01-11T02:04:35;36.85;;;18.48;;
20445;SDS011;10382;49.140;9.234;2024-01-11T02:07:02;34.67;;;17.77;;
20445;SDS011;10382;49.140;9.234;2024-01-11T02:09:29;42.33;;;18.75;;
20445;SDS011;10382;49.140;9.234;2024-01-11T02:11:56;38.30;;;17.52;;
20445;SDS011;10382;49.140;9.234;2024-01-11T02:14:24;43.40;;;18.10;;
20445;SDS011;10382;49.140;9.234;2024-01-11T02:16:52;33.90;;;18.25;;
20445;SDS011;10382;49.140;9.234;2024-01-11T02:19:19;33.50;;;19.05;;
20445;SDS011;10382;49.140;9.234;2024-01-11T02:21:48;35.20;;;19.50;;
20445;SDS011;10382;49.140;9.234;2024-01-11T02:24:19;36.05;;;19.30;;
20445;SDS011;10382;49.140;9.234;2024-01-11T02:26:57;40.72;;;20.45;;
20445;SDS011;10382;49.140;9.234;2024-01-11T02:29:25;31.27;;;17.58;;
20445;SDS011;10382;49.140;9.234;2024-01-11T02:31:52;31.45;;;17.55;;
20445;SDS011;10382;49.140;9.234;2024-01-11T02:34:20;36.33;;;18.50;;
20445;SDS011;10382;49.140;9.234;2024-01-11T02:36:47;31.90;;;16.27;;
20445;SDS011;10382;49.140;9.234;2024-01-11T02:39:15;36.00;;;15.50;;
20445;SDS011;10382;49.140;9.234;2024-01-11T02:41:46;38.15;;;17.00;;
20445;SDS011;10382;49.140;9.234;2024-01-11T02:44:15;35.30;;;17.05;;
20445;SDS011;10382;49.140;9.234;2024-01-11T02:46:42;43.00;;;18.35;;
20445;SDS011;10382;49.140;9.234;2024-01-11T02:49:09;33.38;;;17.38;;
20445;SDS011;10382;49.140;9.234;2024-01-11T02:51:36;44.45;;;18.30;;
20445;SDS011;10382;49.140;9.234;2024-01-11T02:54:03;42.47;;;18.95;;
20445;SDS011;10382;49.140;9.234;2024-01-11T02:56:30;31.90;;;18.10;;
20445;SDS011;10382;49.140;9.234;2024-01-11T02:58:58;39.03;;;18.13;;
20445;SDS011;10382;49.140;9.234;2024-01-11T03:01:25;41.55;;;18.67;;
20445;SDS011;10382;49.140;9.234;2024-01-11T03:03:52;53.20;;;20.08;;
20445;SDS011;10382;49.140;9.234;2024-01-11T03:06:19;34.00;;;16.27;;
20445;SDS011;10382;49.140;9.234;2024-01-11T03:08:47;42.72;;;19.92;;
20445;SDS011;10382;49.140;9.234;2024-01-11T03:11:14;29.15;;;15.90;;
20445;SDS011;10382;49.140;9.234;2024-01-11T03:13:41;39.70;;;19.98;;
20445;SDS011;10382;49.140;9.234;2024-01-11T03:16:09;35.50;;;17.50;;
20445;SDS011;10382;49.140;9.234;2024-01-11T03:18:36;42.72;;;18.83;;
20445;SDS011;10382;49.140;9.234;2024-01-11T03:21:03;38.40;;;18.13;;
20445;SDS011;10382;49.140;9.234;2024-01-11T03:23:31;38.58;;;17.92;;
20445;SDS011;10382;49.140;9.234;2024-01-11T03:25:58;36.95;;;18.67;;
20445;SDS011;10382;49.140;9.234;2024-01-11T03:28:26;37.45;;;17.73;;
20445;SDS011;10382;49.140;9.234;2024-01-11T03:30:52;31.55;;;18.33;;
20445;SDS011;10382;49.140;9.234;2024-01-11T03:33:21;35.47;;;17.48;;
20445;SDS011;10382;49.140;9.234;2024-01-11T03:35:47;28.27;;;15.98;;
20445;SDS011;10382;49.140;9.234;2024-01-11T03:38:14;36.45;;;17.23;;
20445;SDS011;10382;49.140;9.234;2024-01-11T03:40:41;33.83;;;17.13;;
20445;SDS011;10382;49.140;9.234;2024-01-11T03:43:08;42.00;;;19.02;;
20445;SDS011;10382;49.140;9.234;2024-01-11T03:45:35;34.22;;;19.15;;
20445;SDS011;10382;49.140;9.234;2024-01-11T03:48:02;39.15;;;18.08;;
20445;SDS011;10382;49.140;9.234;2024-01-11T03:50:30;37.72;;;18.88;;
20445;SDS011;10382;49.140;9.234;2024-01-11T03:52:57;34.60;;;17.55;;
20445;SDS011;10382;49.140;9.234;2024-01-11T03:55:24;35.85;;;17.48;;
20445;SDS011;10382;49.140;9.234;2024-01-11T03:57:51;37.28;;;18.88;;
20445;SDS011;10382;49.140;9.234;2024-01-11T04:00:17;42.42;;;17.77;;
20445;SDS011;10382;49.140;9.234;2024-01-11T04:02:44;40.78;;;16.35;;
20445;SDS011;10382;49.140;9.234;2024-01-11T04:05:11;40.38;;;19.88;;
20445;SDS011;10382;49.140;9.234;2024-01-11T04:07:40;39.08;;;18.17;;
20445;SDS011;10382;49.140;9.234;2024-01-11T04:10:07;36.03;;;16.30;;
20445;SDS011;10382;49.140;9.234;2024-01-11T04:12:34;37.47;;;18.98;;
20445;SDS011;10382;49.140;9.234;2024-01-11T04:15:01;34.20;;;16.75;;
20445;SDS011;10382;49.140;9.234;2024-01-11T04:17:28;36.00;;;18.35;;
20445;SDS011;10382;49.140;9.234;2024-01-11T04:19:55;39.67;;;19.30;;
20445;SDS011;10382;49.140;9.234;2024-01-11T04:22:22;33.70;;;17.95;;
20445;SDS011;10382;49.140;9.234;2024-01-11T04:24:51;35.50;;;18.50;;
20445;SDS011;10382;49.140;9.234;2024-01-11T04:27:17;42.20;;;17.63;;
20445;SDS011;10382;49.140;9.234;2024-01-11T04:29:44;40.55;;;18.60;;
20445;SDS011;10382;49.140;9.234;2024-01-11T04:32:11;39.22;;;19.58;;
20445;SDS011;10382;49.140;9.234;2024-01-11T04:34:38;37.80;;;15.98;;
20445;SDS011;10382;49.140;9.234;2024-01-11T04:37:05;36.78;;;18.35;;
20445;SDS011;10382;49.140;9.234;2024-01-11T04:39:32;37.42;;;17.20;;
20445;SDS011;10382;49.140;9.234;2024-01-11T04:42:01;32.90;;;17.05;;
20445;SDS011;10382;49.140;9.234;2024-01-11T04:44:28;39.47;;;17.13;;
20445;SDS011;10382;49.140;9.234;2024-01-11T04:46:55;34.20;;;17.60;;
20445;SDS011;10382;49.140;9.234;2024-01-11T04:49:22;34.83;;;16.75;;
20445;SDS011;10382;49.140;9.234;2024-01-11T04:51:48;37.30;;;18.08;;
20445;SDS011;10382;49.140;9.234;2024-01-11T04:54:15;33.88;;;18.58;;
20445;SDS011;10382;49.140;9.234;2024-01-11T04:56:42;40.53;;;18.13;;
20445;SDS011;10382;49.140;9.234;2024-01-11T04:59:11;37.15;;;17.13;;
20445;SDS011;10382;49.140;9.234;2024-01-11T05:01:38;33.85;;;17.63;;
20445;SDS011;10382;49.140;9.234;2024-01-11T05:04:06;34.28;;;18.17;;
20445;SDS011;10382;49.140;9.234;2024-01-11T05:06:33;36.95;;;17.60;;
20445;SDS011;10382;49.140;9.234;2024-01-11T05:09:00;34.50;;;16.05;;
20445;SDS011;10382;49.140;9.234;2024-01-11T05:11:27;28.55;;;17.23;;
20445;SDS011;10382;49.140;9.234;2024-01-11T05:13:54;38.25;;;17.73;;
20445;SDS011;10382;49.140;9.234;2024-01-11T05:16:23;44.38;;;19.10;;
20445;SDS011;10382;49.140;9.234;2024-01-11T05:18:51;39.33;;;19.10;;
20445;SDS011;10382;49.140;9.234;2024-01-11T05:21:19;38.90;;;17.23;;
20445;SDS011;10382;49.140;9.234;2024-01-11T05:23:46;36.20;;;17.60;;
20445;SDS011;10382;49.140;9.234;2024-01-11T05:26:14;39.85;;;17.75;;
20445;SDS011;10382;49.140;9.234;2024-01-11T05:28:42;35.35;;;15.18;;
20445;SDS011;10382;49.140;9.234;2024-01-11T05:31:09;39.47;;;19.27;;
20445;SDS011;10382;49.140;9.234;2024-01-11T05:33:38;37.78;;;18.20;;
20445;SDS011;10382;49.140;9.234;2024-01-11T05:36:05;35.20;;;18.45;;
20445;SDS011;10382;49.140;9.234;2024-01-11T05:38:33;39.08;;;19.40;;
20445;SDS011;10382;49.140;9.234;2024-01-11T05:41:00;33.63;;;17.88;;
20445;SDS011;10382;49.140;9.234;2024-01-11T05:43:26;39.25;;;18.55;;
20445;SDS011;10382;49.140;9.234;2024-01-11T05:45:53;36.05;;;17.58;;
20445;SDS011;10382;49.140;9.234;2024-01-11T05:48:20;35.75;;;17.92;;
20445;SDS011;10382;49.140;9.234;2024-01-11T05:50:48;44.50;;;18.90;;
20445;SDS011;10382;49.140;9.234;2024-01-11T05:53:15;31.50;;;16.55;;
20445;SDS011;10382;49.140;9.234;2024-01-11T05:55:45;38.55;;;16.60;;
20445;SDS011;10382;49.140;9.234;2024-01-11T05:58:12;34.42;;;17.55;;
20445;SDS011;10382;49.140;9.234;2024-01-11T06:00:39;38.70;;;18.17;;
20445;SDS011;10382;49.140;9.234;2024-01-11T06:03:07;51.80;;;19.27;;
20445;SDS011;10382;49.140;9.234;2024-01-11T06:05:33;36.55;;;18.75;;
20445;SDS011;10382;49.140;9.234;2024-01-11T06:08:02;55.50;;;19.42;;
20445;SDS011;10382;49.140;9.234;2024-01-11T06:10:29;36.92;;;17.13;;
20445;SDS011;10382;49.140;9.234;2024-01-11T06:12:56;36.00;;;17.10;;
20445;SDS011;10382;49.140;9.234;2024-01-11T06:15:23;38.67;;;17.40;;
20445;SDS011;10382;49.140;9.234;2024-01-11T06:17:50;34.25;;;17.55;;
20445;SDS011;10382;49.140;9.234;2024-01-11T06:20:17;38.20;;;17.45;;
20445;SDS011;10382;49.140;9.234;2024-01-11T06:22:43;44.70;;;20.08;;
20445;SDS011;10382;49.140;9.234;2024-01-11T06:25:12;41.50;;;21.35;;
20445;SDS011;10382;49.140;9.234;2024-01-11T06:27:39;32.17;;;17.58;;
20445;SDS011;10382;49.140;9.234;2024-01-11T06:30:08;37.20;;;17.95;;
20445;SDS011;10382;49.140;9.234;2024-01-11T06:32:35;40.20;;;17.98;;
20445;SDS011;10382;49.140;9.234;2024-01-11T06:35:02;45.55;;;18.95;;
20445;SDS011;10382;49.140;9.234;2024-01-11T06:37:30;38.92;;;17.52;;
20445;SDS011;10382;49.140;9.234;2024-01-11T06:39:57;37.22;;;16.55;;
20445;SDS011;10382;49.140;9.234;2024-01-11T06:42:25;37.60;;;17.95;;
20445;SDS011;10382;49.140;9.234;2024-01-11T06:44:52;37.55;;;18.80;;
20445;SDS011;10382;49.140;9.234;2024-01-11T06:47:19;32.08;;;18.13;;
20445;SDS011;10382;49.140;9.234;2024-01-11T06:49:46;43.15;;;19.30;;
20445;SDS011;10382;49.140;9.234;2024-01-11T06:52:12;40.25;;;19.25;;
20445;SDS011;10382;49.140;9.234;2024-01-11T06:54:39;38.75;;;18.63;;
20445;SDS011;10382;49.140;9.234;2024-01-11T06:57:06;44.63;;;20.98;;
20445;SDS011;10382;49.140;9.234;2024-01-11T06:59:35;43.65;;;17.40;;
20445;SDS011;10382;49.140;9.234;2024-01-11T07:02:02;44.10;;;19.00;;
20445;SDS011;10382;49.140;9.234;2024-01-11T07:04:29;35.47;;;17.15;;
20445;SDS011;10382;49.140;9.234;2024-01-11T07:06:56;42.10;;;18.20;;
20445;SDS011;10382;49.140;9.234;2024-01-11T07:09:23;38.80;;;18.55;;
20445;SDS011;10382;49.140;9.234;2024-01-11T07:11:50;45.22;;;19.35;;
20445;SDS011;10382;49.140;9.234;2024-01-11T07:14:17;29.88;;;17.80;;
20445;SDS011;10382;49.140;9.234;2024-01-11T07:16:45;49.25;;;17.80;;
20445;SDS011;10382;49.140;9.234;2024-01-11T07:19:12;40.33;;;19.60;;
20445;SDS011;10382;49.140;9.234;2024-01-11T07:21:39;33.42;;;17.48;;
20445;SDS011;10382;49.140;9.234;2024-01-11T07:24:06;50.72;;;19.25;;
20445;SDS011;10382;49.140;9.234;2024-01-11T07:26:33;39.42;;;19.38;;
20445;SDS011;10382;49.140;9.234;2024-01-11T07:28:59;40.65;;;20.65;;
20445;SDS011;10382;49.140;9.234;2024-01-11T07:31:26;40.35;;;19.48;;
20445;SDS011;10382;49.140;9.234;2024-01-11T07:33:55;46.80;;;21.77;;
20445;SDS011;10382;49.140;9.234;2024-01-11T07:36:22;34.80;;;17.33;;
20445;SDS011;10382;49.140;9.234;2024-01-11T07:38:50;48.72;;;20.58;;
20445;SDS011;10382;49.140;9.234;2024-01-11T07:41:17;41.33;;;20.15;;
20445;SDS011;10382;49.140;9.234;2024-01-11T07:43:44;32.05;;;17.40;;
20445;SDS011;10382;49.140;9.234;2024-01-11T07:46:10;46.50;;;18.05;;
20445;SDS011;10382;49.140;9.234;2024-01-11T07:48:37;40.17;;;18.48;;
20445;SDS011;10382;49.140;9.234;2024-01-11T07:51:05;36.55;;;18.77;;
20445;SDS011;10382;49.140;9.234;2024-01-11T07:53:32;32.28;;;16.52;;
20445;SDS011;10382;49.140;9.234;2024-01-11T07:55:59;35.05;;;18.00;;
20445;SDS011;10382;49.140;9.234;2024-01-11T07:58:26;32.05;;;16.80;;
20445;SDS011;10382;49.140;9.234;2024-01-11T08:00:53;37.88;;;20.23;;
20445;SDS011;10382;49.140;9.234;2024-01-11T08:03:20;42.33;;;20.30;;
20445;SDS011;10382;49.140;9.234;2024-01-11T08:05:47;41.50;;;19.35;;
20445;SDS011;10382;49.140;9.234;2024-01-11T08:08:16;42.75;;;19.67;;
20445;SDS011;10382;49.140;9.234;2024-01-11T08:10:43;45.90;;;18.80;;
20445;SDS011;10382;49.140;9.234;2024-01-11T08:13:10;43.65;;;18.98;;
20445;SDS011;10382;49.140;9.234;2024-01-11T08:15:38;39.45;;;19.40;;
20445;SDS011;10382;49.140;9.234;2024-01-11T08:18:05;45.05;;;19.75;;
20445;SDS011;10382;49.140;9.234;2024-01-11T08:20:32;35.33;;;18.23;;
20445;SDS011;10382;49.140;9.234;2024-01-11T08:22:59;44.40;;;18.55;;
20445;SDS011;10382;49.140;9.234;2024-01-11T08:25:27;40.83;;;19.88;;
20445;SDS011;10382;49.140;9.234;2024-01-11T08:27:54;49.75;;;21.20;;
20445;SDS011;10382;49.140;9.234;2024-01-11T08:30:21;52.30;;;22.25;;
20445;SDS011;10382;49.140;9.234;2024-01-11T08:32:48;48.75;;;18.83;;
20445;SDS011;10382;49.140;9.234;2024-01-11T08:35:15;53.55;;;21.80;;
20445;SDS011;10382;49.140;9.234;2024-01-11T08:37:42;43.28;;;21.10;;
20445;SDS011;10382;49.140;9.234;2024-01-11T08:40:09;39.20;;;19.55;;
20445;SDS011;10382;49.140;9.234;2024-01-11T08:42:38;44.67;;;23.00;;
20445;SDS011;10382;49.140;9.234;2024-01-11T08:45:06;45.42;;;22.67;;
20445;SDS011;10382;49.140;9.234;2024-01-11T08:47:33;42.72;;;20.65;;
20445;SDS011;10382;49.140;9.234;2024-01-11T08:50:03;46.80;;;22.23;;
20445;SDS011;10382;49.140;9.234;2024-01-11T08:52:32;41.65;;;21.65;;
20445;SDS011;10382;49.140;9.234;2024-01-11T08:54:59;45.70;;;24.53;;
20445;SDS011;10382;49.140;9.234;2024-01-11T08:57:25;49.27;;;23.83;;
20445;SDS011;10382;49.140;9.234;2024-01-11T08:59:54;54.10;;;24.70;;
20445;SDS011;10382;49.140;9.234;2024-01-11T09:02:21;39.50;;;23.33;;
20445;SDS011;10382;49.140;9.234;2024-01-11T09:04:48;43.47;;;24.13;;
20445;SDS011;10382;49.140;9.234;2024-01-11T09:07:15;50.43;;;26.70;;
20445;SDS011;10382;49.140;9.234;2024-01-11T09:09:42;53.37;;;30.67;;
20445;SDS011;10382;49.140;9.234;2024-01-11T09:12:10;81.10;;;34.73;;
20445;SDS011;10382;49.140;9.234;2024-01-11T09:14:37;53.83;;;26.57;;
20445;SDS011;10382;49.140;9.234;2024-01-11T09:17:06;49.17;;;25.63;;
20445;SDS011;10382;49.140;9.234;2024-01-11T09:19:33;45.80;;;25.70;;
20445;SDS011;10382;49.140;9.234;2024-01-11T09:22:00;49.57;;;25.73;;
20445;SDS011;10382;49.140;9.234;2024-01-11T09:24:27;49.13;;;25.67;;
20445;SDS011;10382;49.140;9.234;2024-01-11T09:26:54;42.30;;;23.27;;
20445;SDS011;10382;49.140;9.234;2024-01-11T09:29:21;43.43;;;23.90;;
20445;SDS011;10382;49.140;9.234;2024-01-11T09:31:48;46.47;;;23.07;;
20445;SDS011;10382;49.140;9.234;2024-01-11T09:34:16;44.17;;;24.30;;
20445;SDS011;10382;49.140;9.234;2024-01-11T09:36:43;42.80;;;26.17;;
20445;SDS011;10382;49.140;9.234;2024-01-11T09:39:10;58.73;;;27.77;;
20445;SDS011;10382;49.140;9.234;2024-01-11T09:41:38;41.60;;;23.70;;
20445;SDS011;10382;49.140;9.234;2024-01-11T09:44:09;48.90;;;26.50;;
20445;SDS011;10382;49.140;9.234;2024-01-11T09:46:36;56.47;;;25.73;;
20445;SDS011;10382;49.140;9.234;2024-01-11T09:49:03;50.33;;;25.80;;
20445;SDS011;10382;49.140;9.234;2024-01-11T09:51:33;53.00;;;25.55;;
20445;SDS011;10382;49.140;9.234;2024-01-11T09:54:03;51.65;;;24.17;;
20445;SDS011;10382;49.140;9.234;2024-01-11T09:56:32;51.13;;;22.83;;
20445;SDS011;10382;49.140;9.234;2024-01-11T09:59:00;50.08;;;25.20;;
20445;SDS011;10382;49.140;9.234;2024-01-11T10:01:28;53.72;;;25.15;;
20445;SDS011;10382;49.140;9.234;2024-01-11T10:03:55;46.35;;;24.33;;
20445;SDS011;10382;49.140;9.234;2024-01-11T10:06:22;48.35;;;24.67;;
20445;SDS011;10382;49.140;9.234;2024-01-11T10:08:53;44.03;;;21.92;;
20445;SDS011;10382;49.140;9.234;2024-01-11T10:11:20;51.77;;;26.00;;
20445;SDS011;10382;49.140;9.234;2024-01-11T10:13:47;56.80;;;25.50;;
20445;SDS011;10382;49.140;9.234;2024-01-11T10:16:14;48.13;;;27.03;;
20445;SDS011;10382;49.140;9.234;2024-01-11T10:18:41;54.17;;;26.93;;
20445;SDS011;10382;49.140;9.234;2024-01-11T10:21:09;51.40;;;27.73;;
20445;SDS011;10382;49.140;9.234;2024-01-11T10:23:36;50.23;;;25.80;;
20445;SDS011;10382;49.140;9.234;2024-01-11T10:26:05;44.43;;;26.20;;
20445;SDS011;10382;49.140;9.234;2024-01-11T10:28:32;46.50;;;27.80;;
20445;SDS011;10382;49.140;9.234;2024-01-11T10:31:02;45.30;;;27.23;;
20445;SDS011;10382;49.140;9.234;2024-01-11T10:33:30;55.60;;;27.67;;
20445;SDS011;10382;49.140;9.234;2024-01-11T10:35:56;44.63;;;25.97;;
20445;SDS011;10382;49.140;9.234;2024-01-11T10:38:23;46.27;;;28.10;;
20445;SDS011;10382;49.140;9.234;2024-01-11T10:40:52;55.60;;;28.43;;
20445;SDS011;10382;49.140;9.234;2024-01-11T10:43:22;50.80;;;28.60;;
20445;SDS011;10382;49.140;9.234;2024-01-11T10:45:49;42.07;;;26.40;;
20445;SDS011;10382;49.140;9.234;2024-01-11T10:48:20;45.70;;;26.40;;
20445;SDS011;10382;49.140;9.234;2024-01-11T10:50:49;43.50;;;24.47;;
20445;SDS011;10382;49.140;9.234;2024-01-11T10:53:28;48.40;;;27.30;;
20445;SDS011;10382;49.140;9.234;2024-01-11T10:56:05;60.83;;;28.23;;
20445;SDS011;10382;49.140;9.234;2024-01-11T10:58:34;52.37;;;27.10;;
20445;SDS011;10382;49.140;9.234;2024-01-11T11:01:02;50.00;;;27.97;;
20445;SDS011;10382;49.140;9.234;2024-01-11T11:03:30;54.47;;;26.33;;
20445;SDS011;10382;49.140;9.234;2024-01-11T11:05:58;45.33;;;24.30;;
20445;SDS011;10382;49.140;9.234;2024-01-11T11:08:26;47.57;;;24.53;;
20445;SDS011;10382;49.140;9.234;2024-01-11T11:10:55;41.70;;;25.30;;
20445;SDS011;10382;49.140;9.234;2024-01-11T11:13:23;46.60;;;26.40;;
20445;SDS011;10382;49.140;9.234;2024-01-11T11:15:51;47.10;;;25.73;;
20445;SDS011;10382;49.140;9.234;2024-01-11T11:18:19;52.80;;;29.00;;
20445;SDS011;10382;49.140;9.234;2024-01-11T11:20:47;42.17;;;26.80;;
20445;SDS011;10382;49.140;9.234;2024-01-11T11:23:17;47.23;;;26.87;;
20445;SDS011;10382;49.140;9.234;2024-01-11T11:25:45;45.80;;;26.50;;
20445;SDS011;10382;49.140;9.234;2024-01-11T11:28:12;43.97;;;28.67;;
20445;SDS011;10382;49.140;9.234;2024-01-11T11:30:41;44.80;;;26.67;;
20445;SDS011;10382;49.140;9.234;2024-01-11T11:33:10;39.47;;;26.77;;
20445;SDS011;10382;49.140;9.234;2024-01-11T11:35:42;45.73;;;28.23;;
20445;SDS011;10382;49.140;9.234;2024-01-11T11:38:14;46.73;;;29.60;;
20445;SDS011;10382;49.140;9.234;2024-01-11T11:40:44;44.43;;;27.97;;
20445;SDS011;10382;49.140;9.234;2024-01-11T11:43:13;49.57;;;27.33;;
20445;SDS011;10382;49.140;9.234;2024-01-11T11:45:42;46.87;;;28.00;;
20445;SDS011;10382;49.140;9.234;2024-01-11T11:51:16;40.83;;;27.93;;
20445;SDS011;10382;49.140;9.234;2024-01-11T11:53:45;45.23;;;28.47;;
20445;SDS011;10382;49.140;9.234;2024-01-11T11:56:13;37.37;;;27.00;;
20445;SDS011;10382;49.140;9.234;2024-01-11T11:58:42;40.63;;;28.10;;
20445;SDS011;10382;49.140;9.234;2024-01-11T12:01:10;42.77;;;27.20;;
20445;SDS011;10382;49.140;9.234;2024-01-11T12:03:38;41.87;;;26.80;;
20445;SDS011;10382;49.140;9.234;2024-01-11T12:06:13;43.97;;;28.47;;
20445;SDS011;10382;49.140;9.234;2024-01-11T12:08:41;42.47;;;27.77;;
20445;SDS011;10382;49.140;9.234;2024-01-11T12:11:08;41.17;;;28.03;;
20445;SDS011;10382;49.140;9.234;2024-01-11T12:13:38;38.40;;;27.27;;
20445;SDS011;10382;49.140;9.234;2024-01-11T12:16:06;42.73;;;28.03;;
20445;SDS011;10382;49.140;9.234;2024-01-11T12:18:33;43.87;;;27.00;;
20445;SDS011;10382;49.140;9.234;2024-01-11T12:21:00;38.77;;;27.77;;
20445;SDS011;10382;49.140;9.234;2024-01-11T12:23:28;37.40;;;26.40;;
20445;SDS011;10382;49.140;9.234;2024-01-11T12:25:56;43.83;;;29.67;;
20445;SDS011;10382;49.140;9.234;2024-01-11T12:28:23;37.93;;;25.67;;
20445;SDS011;10382;49.140;9.234;2024-01-11T12:30:50;43.43;;;28.90;;
20445;SDS011;10382;49.140;9.234;2024-01-11T12:33:17;39.80;;;26.60;;
20445;SDS011;10382;49.140;9.234;2024-01-11T12:35:45;42.87;;;28.73;;
20445;SDS011;10382;49.140;9.234;2024-01-11T12:38:13;48.73;;;29.33;;
20445;SDS011;10382;49.140;9.234;2024-01-11T12:40:42;43.23;;;27.70;;
20445;SDS011;10382;49.140;9.234;2024-01-11T12:43:10;46.57;;;28.50;;
20445;SDS011;10382;49.140;9.234;2024-01-11T12:45:38;59.23;;;29.03;;
20445;SDS011;10382;49.140;9.234;2024-01-11T12:48:07;47.07;;;28.80;;
20445;SDS011;10382;49.140;9.234;2024-01-11T12:50:34;49.33;;;28.40;;
20445;SDS011;10382;49.140;9.234;2024-01-11T12:53:06;49.37;;;27.27;;
20445;SDS011;10382;49.140;9.234;2024-01-11T12:55:34;40.63;;;27.50;;
20445;SDS011;10382;49.140;9.234;2024-01-11T12:58:06;38.23;;;27.07;;
20445;SDS011;10382;49.140;9.234;2024-01-11T13:00:35;40.83;;;25.40;;
20445;SDS011;10382;49.140;9.234;2024-01-11T13:03:02;45.00;;;26.97;;
20445;SDS011;10382;49.140;9.234;2024-01-11T13:05:30;39.13;;;26.77;;
20445;SDS011;10382;49.140;9.234;2024-01-11T13:08:00;35.30;;;25.70;;
20445;SDS011;10382;49.140;9.234;2024-01-11T13:10:28;42.57;;;26.80;;
20445;SDS011;10382;49.140;9.234;2024-01-11T13:12:55;41.27;;;24.83;;
20445;SDS011;10382;49.140;9.234;2024-01-11T13:15:25;37.93;;;23.73;;
20445;SDS011;10382;49.140;9.234;2024-01-11T13:17:54;37.33;;;25.13;;
20445;SDS011;10382;49.140;9.234;2024-01-11T13:20:21;39.10;;;26.30;;
20445;SDS011;10382;49.140;9.234;2024-01-11T13:22:48;35.87;;;25.30;;
20445;SDS011;10382;49.140;9.234;2024-01-11T13:25:16;36.27;;;24.73;;
20445;SDS011;10382;49.140;9.234;2024-01-11T13:27:43;35.33;;;24.03;;
20445;SDS011;10382;49.140;9.234;2024-01-11T13:30:10;38.17;;;25.43;;
20445;SDS011;10382;49.140;9.234;2024-01-11T13:32:40;38.17;;;25.83;;
20445;SDS011;10382;49.140;9.234;2024-01-11T13:35:07;37.13;;;23.87;;
20445;SDS011;10382;49.140;9.234;2024-01-11T13:37:34;37.87;;;24.43;;
20445;SDS011;10382;49.140;9.234;2024-01-11T13:40:01;36.53;;;25.10;;
20445;SDS011;10382;49.140;9.234;2024-01-11T13:42:28;34.30;;;24.40;;
20445;SDS011;10382;49.140;9.234;2024-01-11T13:44:55;38.57;;;25.43;;
20445;SDS011;10382;49.140;9.234;2024-01-11T13:47:22;44.43;;;26.47;;
20445;SDS011;10382;49.140;9.234;2024-01-11T13:49:50;37.30;;;25.17;;
20445;SDS011;10382;49.140;9.234;2024-01-11T13:52:17;40.47;;;24.73;;
20445;SDS011;10382;49.140;9.234;2024-01-11T13:54:44;46.93;;;25.20;;
20445;SDS011;10382;49.140;9.234;2024-01-11T13:57:11;37.83;;;25.53;;
20445;SDS011;10382;49.140;9.234;2024-01-11T13:59:38;38.33;;;23.90;;
20445;SDS011;10382;49.140;9.234;2024-01-11T14:02:05;43.37;;;27.07;;
20445;SDS011;10382;49.140;9.234;2024-01-11T14:04:32;38.10;;;26.17;;
20445;SDS011;10382;49.140;9.234;2024-01-11T14:07:00;41.87;;;23.73;;
20445;SDS011;10382;49.140;9.234;2024-01-11T14:09:28;43.23;;;24.80;;
20445;SDS011;10382;49.140;9.234;2024-01-11T14:11:55;43.70;;;24.50;;
20445;SDS011;10382;49.140;9.234;2024-01-11T14:14:22;38.17;;;23.60;;
20445;SDS011;10382;49.140;9.234;2024-01-11T14:16:49;42.73;;;24.00;;
20445;SDS011;10382;49.140;9.234;2024-01-11T14:19:17;32.57;;;22.63;;
20445;SDS011;10382;49.140;9.234;2024-01-11T14:21:44;43.27;;;22.60;;
20445;SDS011;10382;49.140;9.234;2024-01-11T14:24:12;36.87;;;23.80;;
20445;SDS011;10382;49.140;9.234;2024-01-11T14:26:39;42.40;;;24.83;;